sensor_id;sensor_type;location;lat;lon;timestamp;P1;durP1;ratioP1;P2;durP2;ratioP2
8104;SDS011;4095;48.942;9.104;2023-11-19T00:00:26;9.37;;;6.73;;
8104;SDS011;4095;48.942;9.104;2023-11-19T00:02:53;8.00;;;7.17;;
8104;SDS011;4095;48.942;9.104;2023-11-19T00:05:18;8.27;;;6.27;;
8104;SDS011;4095;48.942;9.104;2023-11-19T00:07:44;7.07;;;5.67;;
8104;SDS011;4095;48.942;9.104;2023-11-19T00:10:13;5.97;;;5.07;;
8104;SDS011;4095;48.942;9.104;2023-11-19T00:12:50;6.27;;;4.87;;
8104;SDS011;4095;48.942;9.104;2023-11-19T00:15:16;6.47;;;5.27;;
8104;SDS011;4095;48.942;9.104;2023-11-19T00:17:44;6.87;;;5.87;;
8104;SDS011;4095;48.942;9.104;2023-11-19T00:20:11;9.33;;;7.70;;
8104;SDS011;4095;48.942;9.104;2023-11-19T00:22:37;8.43;;;7.03;;
8104;SDS011;4095;48.942;9.104;2023-11-19T00:25:03;8.57;;;7.20;;
8104;SDS011;4095;48.942;9.104;2023-11-19T00:27:30;9.03;;;7.77;;
8104;SDS011;4095;48.942;9.104;2023-11-19T00:29:56;8.93;;;8.03;;
8104;SDS011;4095;48.942;9.104;2023-11-19T00:32:23;8.27;;;7.43;;
8104;SDS011;4095;48.942;9.104;2023-11-19T00:34:48;8.30;;;7.50;;
8104;SDS011;4095;48.942;9.104;2023-11-19T00:37:14;8.83;;;7.93;;
8104;SDS011;4095;48.942;9.104;2023-11-19T00:39:40;8.33;;;7.53;;
8104;SDS011;4095;48.942;9.104;2023-11-19T00:42:06;9.40;;;8.37;;
8104;SDS011;4095;48.942;9.104;2023-11-19T00:44:32;10.63;;;9.50;;
8104;SDS011;4095;48.942;9.104;2023-11-19T00:46:58;9.20;;;8.30;;
8104;SDS011;4095;48.942;9.104;2023-11-19T00:49:25;10.40;;;9.27;;
8104;SDS011;4095;48.942;9.104;2023-11-19T00:51:50;10.07;;;9.07;;
8104;SDS011;4095;48.942;9.104;2023-11-19T00:54:16;9.77;;;8.70;;
8104;SDS011;4095;48.942;9.104;2023-11-19T00:56:42;9.30;;;8.40;;
8104;SDS011;4095;48.942;9.104;2023-11-19T00:59:07;10.03;;;8.60;;
8104;SDS011;4095;48.942;9.104;2023-11-19T01:01:33;9.97;;;8.27;;
8104;SDS011;4095;48.942;9.104;2023-11-19T01:03:59;8.50;;;7.60;;
8104;SDS011;4095;48.942;9.104;2023-11-19T01:06:31;8.53;;;7.63;;
8104;SDS011;4095;48.942;9.104;2023-11-19T01:08:57;8.60;;;7.70;;
8104;SDS011;4095;48.942;9.104;2023-11-19T01:11:24;8.00;;;7.20;;
8104;SDS011;4095;48.942;9.104;2023-11-19T01:13:50;8.70;;;7.90;;
8104;SDS011;4095;48.942;9.104;2023-11-19T01:16:17;9.50;;;7.67;;
8104;SDS011;4095;48.942;9.104;2023-11-19T01:18:43;8.93;;;8.03;;
8104;SDS011;4095;48.942;9.104;2023-11-19T01:21:09;9.13;;;8.00;;
8104;SDS011;4095;48.942;9.104;2023-11-19T01:23:35;8.87;;;7.97;;
8104;SDS011;4095;48.942;9.104;2023-11-19T01:26:02;8.50;;;7.60;;
8104;SDS011;4095;48.942;9.104;2023-11-19T01:28:28;9.00;;;7.77;;
8104;SDS011;4095;48.942;9.104;2023-11-19T01:30:53;9.53;;;8.53;;
8104;SDS011;4095;48.942;9.104;2023-11-19T01:33:19;10.03;;;9.07;;
8104;SDS011;4095;48.942;9.104;2023-11-19T01:35:45;10.47;;;9.13;;
8104;SDS011;4095;48.942;9.104;2023-11-19T01:38:10;9.70;;;8.70;;
8104;SDS011;4095;48.942;9.104;2023-11-19T01:40:36;10.67;;;9.57;;
8104;SDS011;4095;48.942;9.104;2023-11-19T01:43:02;11.97;;;9.97;;
8104;SDS011;4095;48.942;9.104;2023-11-19T01:45:29;10.63;;;9.50;;
8104;SDS011;4095;48.942;9.104;2023-11-19T01:48:00;10.93;;;9.80;;
8104;SDS011;4095;48.942;9.104;2023-11-19T01:50:29;10.60;;;9.40;;
8104;SDS011;4095;48.942;9.104;2023-11-19T01:52:55;10.03;;;9.10;;
8104;SDS011;4095;48.942;9.104;2023-11-19T01:55:22;11.47;;;9.37;;
8104;SDS011;4095;48.942;9.104;2023-11-19T01:57:50;11.00;;;8.80;;
8104;SDS011;4095;48.942;9.104;2023-11-19T02:00:17;9.27;;;8.40;;
8104;SDS011;4095;48.942;9.104;2023-11-19T02:02:44;9.53;;;8.63;;
8104;SDS011;4095;48.942;9.104;2023-11-19T02:05:12;9.27;;;8.47;;
8104;SDS011;4095;48.942;9.104;2023-11-19T02:07:38;9.00;;;8.10;;
8104;SDS011;4095;48.942;9.104;2023-11-19T02:10:04;9.93;;;8.97;;
8104;SDS011;4095;48.942;9.104;2023-11-19T02:12:31;9.47;;;8.27;;
8104;SDS011;4095;48.942;9.104;2023-11-19T02:15:01;10.63;;;9.60;;
8104;SDS011;4095;48.942;9.104;2023-11-19T02:17:31;14.80;;;11.47;;
8104;SDS011;4095;48.942;9.104;2023-11-19T02:19:57;12.30;;;10.37;;
8104;SDS011;4095;48.942;9.104;2023-11-19T02:22:23;11.17;;;9.97;;
8104;SDS011;4095;48.942;9.104;2023-11-19T02:24:49;10.87;;;9.37;;
8104;SDS011;4095;48.942;9.104;2023-11-19T02:27:39;9.87;;;8.77;;
8104;SDS011;4095;48.942;9.104;2023-11-19T02:30:15;10.83;;;9.40;;
8104;SDS011;4095;48.942;9.104;2023-11-19T02:32:42;9.80;;;8.90;;
8104;SDS011;4095;48.942;9.104;2023-11-19T02:35:07;10.07;;;9.00;;
8104;SDS011;4095;48.942;9.104;2023-11-19T02:37:37;10.23;;;9.13;;
8104;SDS011;4095;48.942;9.104;2023-11-19T02:40:04;9.87;;;8.87;;
8104;SDS011;4095;48.942;9.104;2023-11-19T02:42:30;10.77;;;9.67;;
8104;SDS011;4095;48.942;9.104;2023-11-19T02:44:57;11.33;;;10.03;;
8104;SDS011;4095;48.942;9.104;2023-11-19T02:47:22;11.20;;;10.10;;
8104;SDS011;4095;48.942;9.104;2023-11-19T02:49:49;11.63;;;10.43;;
8104;SDS011;4095;48.942;9.104;2023-11-19T02:52:15;10.80;;;9.80;;
8104;SDS011;4095;48.942;9.104;2023-11-19T02:54:42;11.17;;;10.07;;
8104;SDS011;4095;48.942;9.104;2023-11-19T02:57:08;10.43;;;9.43;;
8104;SDS011;4095;48.942;9.104;2023-11-19T02:59:37;10.47;;;9.37;;
8104;SDS011;4095;48.942;9.104;2023-11-19T03:02:07;10.07;;;9.10;;
8104;SDS011;4095;48.942;9.104;2023-11-19T03:04:36;10.80;;;9.70;;
8104;SDS011;4095;48.942;9.104;2023-11-19T03:07:07;10.57;;;9.50;;
8104;SDS011;4095;48.942;9.104;2023-11-19T03:09:33;10.40;;;9.30;;
8104;SDS011;4095;48.942;9.104;2023-11-19T03:12:00;11.00;;;9.90;;
8104;SDS011;4095;48.942;9.104;2023-11-19T03:14:26;11.03;;;10.03;;
8104;SDS011;4095;48.942;9.104;2023-11-19T03:16:52;10.97;;;9.87;;
8104;SDS011;4095;48.942;9.104;2023-11-19T03:19:18;11.77;;;10.60;;
8104;SDS011;4095;48.942;9.104;2023-11-19T03:21:44;11.83;;;10.63;;
8104;SDS011;4095;48.942;9.104;2023-11-19T03:24:10;11.13;;;10.13;;
8104;SDS011;4095;48.942;9.104;2023-11-19T03:26:38;11.63;;;10.53;;
8104;SDS011;4095;48.942;9.104;2023-11-19T03:29:04;11.47;;;10.37;;
8104;SDS011;4095;48.942;9.104;2023-11-19T03:31:29;10.90;;;9.90;;
8104;SDS011;4095;48.942;9.104;2023-11-19T03:33:55;11.23;;;10.13;;
8104;SDS011;4095;48.942;9.104;2023-11-19T03:36:21;11.47;;;10.37;;
8104;SDS011;4095;48.942;9.104;2023-11-19T03:38:47;11.63;;;10.53;;
8104;SDS011;4095;48.942;9.104;2023-11-19T03:41:13;10.87;;;9.77;;
8104;SDS011;4095;48.942;9.104;2023-11-19T03:43:39;10.87;;;9.87;;
8104;SDS011;4095;48.942;9.104;2023-11-19T03:46:16;11.37;;;10.27;;
8104;SDS011;4095;48.942;9.104;2023-11-19T03:48:42;11.17;;;10.17;;
8104;SDS011;4095;48.942;9.104;2023-11-19T03:51:08;10.20;;;9.30;;
8104;SDS011;4095;48.942;9.104;2023-11-19T03:53:34;10.13;;;9.23;;
8104;SDS011;4095;48.942;9.104;2023-11-19T03:56:00;10.27;;;9.23;;
8104;SDS011;4095;48.942;9.104;2023-11-19T03:58:26;9.90;;;9.00;;
8104;SDS011;4095;48.942;9.104;2023-11-19T04:00:51;11.10;;;9.50;;
8104;SDS011;4095;48.942;9.104;2023-11-19T04:03:17;11.00;;;10.00;;
8104;SDS011;4095;48.942;9.104;2023-11-19T04:05:44;10.77;;;9.67;;
8104;SDS011;4095;48.942;9.104;2023-11-19T04:08:10;10.17;;;9.27;;
8104;SDS011;4095;48.942;9.104;2023-11-19T04:10:35;10.17;;;9.27;;
8104;SDS011;4095;48.942;9.104;2023-11-19T04:13:01;10.50;;;9.50;;
8104;SDS011;4095;48.942;9.104;2023-11-19T04:15:27;10.03;;;9.13;;
8104;SDS011;4095;48.942;9.104;2023-11-19T04:17:52;9.53;;;8.73;;
8104;SDS011;4095;48.942;9.104;2023-11-19T04:20:18;10.03;;;9.03;;
8104;SDS011;4095;48.942;9.104;2023-11-19T04:22:43;10.47;;;9.47;;
8104;SDS011;4095;48.942;9.104;2023-11-19T04:25:09;11.00;;;9.90;;
8104;SDS011;4095;48.942;9.104;2023-11-19T04:27:36;10.80;;;9.70;;
8104;SDS011;4095;48.942;9.104;2023-11-19T04:30:01;10.40;;;9.40;;
8104;SDS011;4095;48.942;9.104;2023-11-19T04:32:28;9.93;;;8.93;;
8104;SDS011;4095;48.942;9.104;2023-11-19T04:34:54;10.37;;;9.30;;
8104;SDS011;4095;48.942;9.104;2023-11-19T04:37:19;9.33;;;8.53;;
8104;SDS011;4095;48.942;9.104;2023-11-19T04:39:45;9.67;;;8.77;;
8104;SDS011;4095;48.942;9.104;2023-11-19T04:42:11;9.67;;;8.67;;
8104;SDS011;4095;48.942;9.104;2023-11-19T04:44:37;9.90;;;9.00;;
8104;SDS011;4095;48.942;9.104;2023-11-19T04:47:03;8.50;;;7.70;;
8104;SDS011;4095;48.942;9.104;2023-11-19T04:49:28;9.27;;;8.17;;
8104;SDS011;4095;48.942;9.104;2023-11-19T04:51:55;7.50;;;6.83;;
8104;SDS011;4095;48.942;9.104;2023-11-19T04:54:21;7.60;;;6.90;;
8104;SDS011;4095;48.942;9.104;2023-11-19T04:56:46;9.63;;;8.17;;
8104;SDS011;4095;48.942;9.104;2023-11-19T04:59:12;9.17;;;8.27;;
8104;SDS011;4095;48.942;9.104;2023-11-19T05:01:38;9.40;;;8.47;;
8104;SDS011;4095;48.942;9.104;2023-11-19T05:04:03;9.67;;;8.80;;
8104;SDS011;4095;48.942;9.104;2023-11-19T05:06:29;10.00;;;9.10;;
8104;SDS011;4095;48.942;9.104;2023-11-19T05:08:56;9.87;;;8.93;;
8104;SDS011;4095;48.942;9.104;2023-11-19T05:11:26;10.87;;;9.80;;
8104;SDS011;4095;48.942;9.104;2023-11-19T05:13:53;10.53;;;9.53;;
8104;SDS011;4095;48.942;9.104;2023-11-19T05:16:19;11.43;;;10.17;;
8104;SDS011;4095;48.942;9.104;2023-11-19T05:18:45;10.50;;;9.50;;
8104;SDS011;4095;48.942;9.104;2023-11-19T05:21:11;10.63;;;9.53;;
8104;SDS011;4095;48.942;9.104;2023-11-19T05:23:37;10.40;;;8.30;;
8104;SDS011;4095;48.942;9.104;2023-11-19T05:26:04;8.00;;;7.20;;
8104;SDS011;4095;48.942;9.104;2023-11-19T05:28:30;6.20;;;5.70;;
8104;SDS011;4095;48.942;9.104;2023-11-19T05:30:55;5.87;;;4.90;;
8104;SDS011;4095;48.942;9.104;2023-11-19T05:33:21;3.40;;;3.10;;
8104;SDS011;4095;48.942;9.104;2023-11-19T05:35:47;5.03;;;3.17;;
8104;SDS011;4095;48.942;9.104;2023-11-19T05:38:12;5.07;;;3.10;;
8104;SDS011;4095;48.942;9.104;2023-11-19T05:40:41;2.97;;;2.70;;
8104;SDS011;4095;48.942;9.104;2023-11-19T05:43:06;2.90;;;2.70;;
8104;SDS011;4095;48.942;9.104;2023-11-19T05:45:32;3.30;;;2.40;;
8104;SDS011;4095;48.942;9.104;2023-11-19T05:47:58;3.50;;;2.40;;
8104;SDS011;4095;48.942;9.104;2023-11-19T05:50:23;2.33;;;2.00;;
8104;SDS011;4095;48.942;9.104;2023-11-19T05:52:49;2.50;;;2.17;;
8104;SDS011;4095;48.942;9.104;2023-11-19T05:55:15;2.37;;;2.17;;
8104;SDS011;4095;48.942;9.104;2023-11-19T05:57:41;2.57;;;2.37;;
8104;SDS011;4095;48.942;9.104;2023-11-19T06:00:07;3.53;;;2.70;;
8104;SDS011;4095;48.942;9.104;2023-11-19T06:02:33;3.60;;;3.30;;
8104;SDS011;4095;48.942;9.104;2023-11-19T06:04:59;4.10;;;3.70;;
8104;SDS011;4095;48.942;9.104;2023-11-19T06:07:26;4.97;;;4.57;;
8104;SDS011;4095;48.942;9.104;2023-11-19T06:09:52;4.63;;;4.20;;
8104;SDS011;4095;48.942;9.104;2023-11-19T06:12:18;4.60;;;4.13;;
8104;SDS011;4095;48.942;9.104;2023-11-19T06:14:44;4.40;;;4.00;;
8104;SDS011;4095;48.942;9.104;2023-11-19T06:17:09;4.30;;;3.90;;
8104;SDS011;4095;48.942;9.104;2023-11-19T06:19:36;3.70;;;3.33;;
8104;SDS011;4095;48.942;9.104;2023-11-19T06:22:03;3.10;;;2.80;;
8104;SDS011;4095;48.942;9.104;2023-11-19T06:24:28;3.57;;;2.20;;
8104;SDS011;4095;48.942;9.104;2023-11-19T06:26:54;1.80;;;1.70;;
8104;SDS011;4095;48.942;9.104;2023-11-19T06:29:20;1.40;;;1.30;;
8104;SDS011;4095;48.942;9.104;2023-11-19T06:31:46;2.03;;;1.50;;
8104;SDS011;4095;48.942;9.104;2023-11-19T06:34:14;2.03;;;1.53;;
8104;SDS011;4095;48.942;9.104;2023-11-19T06:36:40;3.93;;;1.40;;
8104;SDS011;4095;48.942;9.104;2023-11-19T06:39:06;2.40;;;1.37;;
8104;SDS011;4095;48.942;9.104;2023-11-19T06:41:31;2.53;;;1.80;;
8104;SDS011;4095;48.942;9.104;2023-11-19T06:43:57;3.73;;;2.30;;
8104;SDS011;4095;48.942;9.104;2023-11-19T06:46:22;3.60;;;2.10;;
8104;SDS011;4095;48.942;9.104;2023-11-19T06:48:48;2.97;;;1.83;;
8104;SDS011;4095;48.942;9.104;2023-11-19T06:51:14;3.00;;;2.10;;
8104;SDS011;4095;48.942;9.104;2023-11-19T06:53:40;2.33;;;1.50;;
8104;SDS011;4095;48.942;9.104;2023-11-19T06:56:21;1.90;;;1.57;;
8104;SDS011;4095;48.942;9.104;2023-11-19T06:58:49;1.90;;;1.53;;
8104;SDS011;4095;48.942;9.104;2023-11-19T07:01:15;2.33;;;1.90;;
8104;SDS011;4095;48.942;9.104;2023-11-19T07:03:41;2.30;;;1.90;;
8104;SDS011;4095;48.942;9.104;2023-11-19T07:06:07;2.40;;;2.20;;
8104;SDS011;4095;48.942;9.104;2023-11-19T07:08:33;2.70;;;2.03;;
8104;SDS011;4095;48.942;9.104;2023-11-19T07:10:59;2.83;;;2.30;;
8104;SDS011;4095;48.942;9.104;2023-11-19T07:13:25;2.10;;;1.90;;
8104;SDS011;4095;48.942;9.104;2023-11-19T07:15:52;3.03;;;2.53;;
8104;SDS011;4095;48.942;9.104;2023-11-19T07:18:18;3.60;;;2.70;;
8104;SDS011;4095;48.942;9.104;2023-11-19T07:20:47;4.00;;;2.70;;
8104;SDS011;4095;48.942;9.104;2023-11-19T07:23:13;3.80;;;2.70;;
8104;SDS011;4095;48.942;9.104;2023-11-19T07:25:41;3.77;;;2.90;;
8104;SDS011;4095;48.942;9.104;2023-11-19T07:28:08;4.57;;;3.10;;
8104;SDS011;4095;48.942;9.104;2023-11-19T07:30:34;4.77;;;3.10;;
8104;SDS011;4095;48.942;9.104;2023-11-19T07:33:00;4.30;;;3.10;;
8104;SDS011;4095;48.942;9.104;2023-11-19T07:35:28;3.57;;;2.97;;
8104;SDS011;4095;48.942;9.104;2023-11-19T07:37:55;3.37;;;2.93;;
8104;SDS011;4095;48.942;9.104;2023-11-19T07:40:22;3.30;;;3.00;;
8104;SDS011;4095;48.942;9.104;2023-11-19T07:42:48;2.53;;;2.33;;
8104;SDS011;4095;48.942;9.104;2023-11-19T07:45:14;4.70;;;2.10;;
8104;SDS011;4095;48.942;9.104;2023-11-19T07:47:40;1.63;;;1.53;;
8104;SDS011;4095;48.942;9.104;2023-11-19T07:50:06;1.53;;;1.43;;
8104;SDS011;4095;48.942;9.104;2023-11-19T07:52:32;1.20;;;1.10;;
8104;SDS011;4095;48.942;9.104;2023-11-19T07:54:57;2.90;;;1.30;;
8104;SDS011;4095;48.942;9.104;2023-11-19T07:57:23;1.50;;;1.40;;
8104;SDS011;4095;48.942;9.104;2023-11-19T07:59:49;1.57;;;1.13;;
8104;SDS011;4095;48.942;9.104;2023-11-19T08:02:15;1.50;;;1.40;;
8104;SDS011;4095;48.942;9.104;2023-11-19T08:04:40;3.57;;;1.47;;
8104;SDS011;4095;48.942;9.104;2023-11-19T08:07:10;2.57;;;1.43;;
8104;SDS011;4095;48.942;9.104;2023-11-19T08:09:36;2.40;;;1.20;;
8104;SDS011;4095;48.942;9.104;2023-11-19T08:12:02;1.93;;;1.30;;
8104;SDS011;4095;48.942;9.104;2023-11-19T08:14:28;1.60;;;1.27;;
8104;SDS011;4095;48.942;9.104;2023-11-19T08:16:54;1.23;;;1.10;;
8104;SDS011;4095;48.942;9.104;2023-11-19T08:19:20;1.30;;;1.20;;
8104;SDS011;4095;48.942;9.104;2023-11-19T08:21:45;4.03;;;3.40;;
8104;SDS011;4095;48.942;9.104;2023-11-19T08:24:11;7.23;;;5.47;;
8104;SDS011;4095;48.942;9.104;2023-11-19T08:26:37;6.87;;;6.17;;
8104;SDS011;4095;48.942;9.104;2023-11-19T08:29:02;7.27;;;6.50;;
8104;SDS011;4095;48.942;9.104;2023-11-19T08:31:28;6.87;;;6.13;;
8104;SDS011;4095;48.942;9.104;2023-11-19T08:33:54;5.50;;;4.97;;
8104;SDS011;4095;48.942;9.104;2023-11-19T08:36:19;3.57;;;3.23;;
8104;SDS011;4095;48.942;9.104;2023-11-19T08:38:45;3.63;;;2.30;;
8104;SDS011;4095;48.942;9.104;2023-11-19T08:41:11;2.07;;;1.60;;
8104;SDS011;4095;48.942;9.104;2023-11-19T08:43:37;1.53;;;1.43;;
8104;SDS011;4095;48.942;9.104;2023-11-19T08:46:04;2.03;;;1.40;;
8104;SDS011;4095;48.942;9.104;2023-11-19T08:48:35;3.20;;;1.43;;
8104;SDS011;4095;48.942;9.104;2023-11-19T08:51:00;2.00;;;1.60;;
8104;SDS011;4095;48.942;9.104;2023-11-19T08:53:26;4.23;;;1.70;;
8104;SDS011;4095;48.942;9.104;2023-11-19T08:55:52;2.43;;;1.90;;
8104;SDS011;4095;48.942;9.104;2023-11-19T08:58:17;2.17;;;1.50;;
8104;SDS011;4095;48.942;9.104;2023-11-19T09:00:43;1.93;;;1.60;;
8104;SDS011;4095;48.942;9.104;2023-11-19T09:03:09;3.57;;;1.70;;
8104;SDS011;4095;48.942;9.104;2023-11-19T09:05:34;2.10;;;1.40;;
8104;SDS011;4095;48.942;9.104;2023-11-19T09:08:00;2.13;;;1.50;;
8104;SDS011;4095;48.942;9.104;2023-11-19T09:10:25;3.33;;;1.60;;
8104;SDS011;4095;48.942;9.104;2023-11-19T09:12:52;3.13;;;1.67;;
8104;SDS011;4095;48.942;9.104;2023-11-19T09:15:17;1.40;;;1.30;;
8104;SDS011;4095;48.942;9.104;2023-11-19T09:17:43;2.17;;;1.30;;
8104;SDS011;4095;48.942;9.104;2023-11-19T09:20:10;2.20;;;1.40;;
8104;SDS011;4095;48.942;9.104;2023-11-19T09:22:39;2.27;;;1.20;;
8104;SDS011;4095;48.942;9.104;2023-11-19T09:25:05;2.57;;;1.53;;
8104;SDS011;4095;48.942;9.104;2023-11-19T09:27:31;2.83;;;2.00;;
8104;SDS011;4095;48.942;9.104;2023-11-19T09:29:57;3.67;;;2.17;;
8104;SDS011;4095;48.942;9.104;2023-11-19T09:32:23;3.10;;;1.50;;
8104;SDS011;4095;48.942;9.104;2023-11-19T09:34:49;3.57;;;1.87;;
8104;SDS011;4095;48.942;9.104;2023-11-19T09:37:15;4.40;;;1.63;;
8104;SDS011;4095;48.942;9.104;2023-11-19T09:39:41;5.40;;;1.97;;
8104;SDS011;4095;48.942;9.104;2023-11-19T09:42:09;4.33;;;1.97;;
8104;SDS011;4095;48.942;9.104;2023-11-19T09:44:36;5.10;;;3.90;;
8104;SDS011;4095;48.942;9.104;2023-11-19T09:47:03;5.10;;;3.60;;
8104;SDS011;4095;48.942;9.104;2023-11-19T09:49:30;4.90;;;2.60;;
8104;SDS011;4095;48.942;9.104;2023-11-19T09:51:56;2.63;;;1.67;;
8104;SDS011;4095;48.942;9.104;2023-11-19T09:54:22;1.80;;;1.30;;
8104;SDS011;4095;48.942;9.104;2023-11-19T09:56:48;1.20;;;0.87;;
8104;SDS011;4095;48.942;9.104;2023-11-19T09:59:14;3.60;;;0.80;;
8104;SDS011;4095;48.942;9.104;2023-11-19T10:01:40;1.43;;;0.80;;
8104;SDS011;4095;48.942;9.104;2023-11-19T10:04:07;1.57;;;0.80;;
8104;SDS011;4095;48.942;9.104;2023-11-19T10:06:34;2.07;;;0.90;;
8104;SDS011;4095;48.942;9.104;2023-11-19T10:09:00;1.73;;;1.00;;
8104;SDS011;4095;48.942;9.104;2023-11-19T10:11:26;1.27;;;1.10;;
8104;SDS011;4095;48.942;9.104;2023-11-19T10:13:53;1.73;;;0.97;;
8104;SDS011;4095;48.942;9.104;2023-11-19T10:16:19;1.50;;;0.83;;
8104;SDS011;4095;48.942;9.104;2023-11-19T10:18:45;1.93;;;1.20;;
8104;SDS011;4095;48.942;9.104;2023-11-19T10:21:14;1.33;;;1.10;;
8104;SDS011;4095;48.942;9.104;2023-11-19T10:26:15;1.90;;;0.90;;
8104;SDS011;4095;48.942;9.104;2023-11-19T10:28:41;1.03;;;0.80;;
8104;SDS011;4095;48.942;9.104;2023-11-19T10:31:09;1.00;;;0.70;;
8104;SDS011;4095;48.942;9.104;2023-11-19T10:33:34;1.80;;;0.83;;
8104;SDS011;4095;48.942;9.104;2023-11-19T10:36:00;4.67;;;0.90;;
8104;SDS011;4095;48.942;9.104;2023-11-19T10:38:26;2.50;;;1.10;;
8104;SDS011;4095;48.942;9.104;2023-11-19T10:40:52;1.87;;;0.80;;
8104;SDS011;4095;48.942;9.104;2023-11-19T10:43:19;1.60;;;0.87;;
8104;SDS011;4095;48.942;9.104;2023-11-19T10:45:47;2.57;;;0.80;;
8104;SDS011;4095;48.942;9.104;2023-11-19T10:48:13;1.17;;;0.80;;
8104;SDS011;4095;48.942;9.104;2023-11-19T10:50:40;1.20;;;0.70;;
8104;SDS011;4095;48.942;9.104;2023-11-19T10:53:07;3.22;;;0.90;;
8104;SDS011;4095;48.942;9.104;2023-11-19T10:55:35;1.52;;;0.60;;
8104;SDS011;4095;48.942;9.104;2023-11-19T10:58:04;2.05;;;0.80;;
8104;SDS011;4095;48.942;9.104;2023-11-19T11:00:34;1.38;;;0.70;;
8104;SDS011;4095;48.942;9.104;2023-11-19T11:03:23;0.87;;;0.70;;
8104;SDS011;4095;48.942;9.104;2023-11-19T11:05:51;2.33;;;1.10;;
8104;SDS011;4095;48.942;9.104;2023-11-19T11:08:18;2.53;;;0.63;;
8104;SDS011;4095;48.942;9.104;2023-11-19T11:10:45;0.68;;;0.50;;
8104;SDS011;4095;48.942;9.104;2023-11-19T11:13:22;1.30;;;0.80;;
8104;SDS011;4095;48.942;9.104;2023-11-19T11:15:49;1.55;;;0.80;;
8104;SDS011;4095;48.942;9.104;2023-11-19T11:18:15;2.28;;;0.70;;
8104;SDS011;4095;48.942;9.104;2023-11-19T11:20:45;0.98;;;0.60;;
8104;SDS011;4095;48.942;9.104;2023-11-19T11:29:30;1.60;;;0.70;;
8104;SDS011;4095;48.942;9.104;2023-11-19T11:39:24;1.35;;;0.80;;
8104;SDS011;4095;48.942;9.104;2023-11-19T11:50:10;1.55;;;1.00;;
8104;SDS011;4095;48.942;9.104;2023-11-19T11:55:26;1.35;;;0.90;;
8104;SDS011;4095;48.942;9.104;2023-11-19T11:58:20;2.53;;;1.10;;
8104;SDS011;4095;48.942;9.104;2023-11-19T12:00:58;2.40;;;1.00;;
8104;SDS011;4095;48.942;9.104;2023-11-19T12:03:26;1.40;;;0.80;;
8104;SDS011;4095;48.942;9.104;2023-11-19T12:05:53;3.08;;;0.70;;
8104;SDS011;4095;48.942;9.104;2023-11-19T12:08:20;1.90;;;1.02;;
8104;SDS011;4095;48.942;9.104;2023-11-19T12:10:50;1.90;;;0.77;;
8104;SDS011;4095;48.942;9.104;2023-11-19T12:13:17;1.00;;;0.70;;
8104;SDS011;4095;48.942;9.104;2023-11-19T12:18:26;1.77;;;1.00;;
8104;SDS011;4095;48.942;9.104;2023-11-19T12:20:53;1.58;;;0.80;;
8104;SDS011;4095;48.942;9.104;2023-11-19T12:23:19;4.55;;;1.25;;
8104;SDS011;4095;48.942;9.104;2023-11-19T12:25:45;2.22;;;1.00;;
8104;SDS011;4095;48.942;9.104;2023-11-19T12:28:14;2.63;;;1.30;;
8104;SDS011;4095;48.942;9.104;2023-11-19T12:30:44;1.85;;;1.00;;
8104;SDS011;4095;48.942;9.104;2023-11-19T12:33:10;1.33;;;0.80;;
8104;SDS011;4095;48.942;9.104;2023-11-19T12:35:39;1.53;;;0.80;;
8104;SDS011;4095;48.942;9.104;2023-11-19T12:38:05;0.97;;;0.70;;
8104;SDS011;4095;48.942;9.104;2023-11-19T12:40:31;1.80;;;0.90;;
8104;SDS011;4095;48.942;9.104;2023-11-19T12:42:57;1.30;;;1.00;;
8104;SDS011;4095;48.942;9.104;2023-11-19T12:45:24;3.43;;;1.10;;
8104;SDS011;4095;48.942;9.104;2023-11-19T12:47:50;2.03;;;0.90;;
8104;SDS011;4095;48.942;9.104;2023-11-19T12:53:22;2.43;;;1.00;;
8104;SDS011;4095;48.942;9.104;2023-11-19T12:55:48;3.30;;;1.20;;
8104;SDS011;4095;48.942;9.104;2023-11-19T12:58:31;1.97;;;0.90;;
8104;SDS011;4095;48.942;9.104;2023-11-19T13:01:17;1.10;;;0.73;;
8104;SDS011;4095;48.942;9.104;2023-11-19T13:03:44;1.07;;;0.90;;
8104;SDS011;4095;48.942;9.104;2023-11-19T13:06:11;1.87;;;0.80;;
8104;SDS011;4095;48.942;9.104;2023-11-19T13:08:47;2.13;;;1.13;;
8104;SDS011;4095;48.942;9.104;2023-11-19T13:11:15;2.37;;;1.10;;
8104;SDS011;4095;48.942;9.104;2023-11-19T13:14:02;1.47;;;0.90;;
8104;SDS011;4095;48.942;9.104;2023-11-19T13:16:29;2.90;;;0.97;;
8104;SDS011;4095;48.942;9.104;2023-11-19T13:18:56;2.53;;;0.90;;
8104;SDS011;4095;48.942;9.104;2023-11-19T13:21:22;1.80;;;0.90;;
8104;SDS011;4095;48.942;9.104;2023-11-19T13:23:48;1.60;;;0.80;;
8104;SDS011;4095;48.942;9.104;2023-11-19T13:26:14;1.43;;;0.90;;
8104;SDS011;4095;48.942;9.104;2023-11-19T13:28:40;1.73;;;1.17;;
8104;SDS011;4095;48.942;9.104;2023-11-19T13:31:05;1.60;;;0.97;;
8104;SDS011;4095;48.942;9.104;2023-11-19T13:33:31;2.00;;;1.10;;
8104;SDS011;4095;48.942;9.104;2023-11-19T13:35:57;2.27;;;0.90;;
8104;SDS011;4095;48.942;9.104;2023-11-19T13:38:22;2.23;;;1.33;;
8104;SDS011;4095;48.942;9.104;2023-11-19T13:40:49;3.03;;;1.23;;
8104;SDS011;4095;48.942;9.104;2023-11-19T13:43:15;3.10;;;1.70;;
8104;SDS011;4095;48.942;9.104;2023-11-19T13:45:41;1.80;;;1.00;;
8104;SDS011;4095;48.942;9.104;2023-11-19T13:48:06;1.53;;;1.20;;
8104;SDS011;4095;48.942;9.104;2023-11-19T13:50:32;3.67;;;0.93;;
8104;SDS011;4095;48.942;9.104;2023-11-19T13:52:59;6.87;;;1.77;;
8104;SDS011;4095;48.942;9.104;2023-11-19T13:55:25;2.53;;;1.50;;
8104;SDS011;4095;48.942;9.104;2023-11-19T13:57:50;1.60;;;1.10;;
8104;SDS011;4095;48.942;9.104;2023-11-19T14:00:16;1.90;;;1.20;;
8104;SDS011;4095;48.942;9.104;2023-11-19T14:02:43;2.90;;;1.53;;
8104;SDS011;4095;48.942;9.104;2023-11-19T14:05:11;2.27;;;1.20;;
8104;SDS011;4095;48.942;9.104;2023-11-19T14:07:37;3.40;;;1.50;;
8104;SDS011;4095;48.942;9.104;2023-11-19T14:10:04;2.80;;;0.90;;
8104;SDS011;4095;48.942;9.104;2023-11-19T14:12:31;1.87;;;1.03;;
8104;SDS011;4095;48.942;9.104;2023-11-19T14:14:57;2.17;;;1.40;;
8104;SDS011;4095;48.942;9.104;2023-11-19T14:17:23;3.23;;;2.10;;
8104;SDS011;4095;48.942;9.104;2023-11-19T14:19:50;1.40;;;1.07;;
8104;SDS011;4095;48.942;9.104;2023-11-19T14:22:15;2.03;;;0.90;;
8104;SDS011;4095;48.942;9.104;2023-11-19T14:24:41;2.10;;;1.00;;
8104;SDS011;4095;48.942;9.104;2023-11-19T14:27:08;1.80;;;0.97;;
8104;SDS011;4095;48.942;9.104;2023-11-19T14:29:34;3.07;;;0.90;;
8104;SDS011;4095;48.942;9.104;2023-11-19T14:32:01;1.20;;;0.80;;
8104;SDS011;4095;48.942;9.104;2023-11-19T14:34:28;2.23;;;0.90;;
8104;SDS011;4095;48.942;9.104;2023-11-19T14:36:54;2.43;;;1.00;;
8104;SDS011;4095;48.942;9.104;2023-11-19T14:39:20;1.73;;;0.90;;
8104;SDS011;4095;48.942;9.104;2023-11-19T14:41:45;3.80;;;1.20;;
8104;SDS011;4095;48.942;9.104;2023-11-19T14:44:11;2.40;;;0.90;;
8104;SDS011;4095;48.942;9.104;2023-11-19T14:46:37;1.63;;;0.90;;
8104;SDS011;4095;48.942;9.104;2023-11-19T14:49:03;2.30;;;0.93;;
8104;SDS011;4095;48.942;9.104;2023-11-19T14:51:29;3.13;;;0.87;;
8104;SDS011;4095;48.942;9.104;2023-11-19T14:53:55;1.40;;;0.73;;
8104;SDS011;4095;48.942;9.104;2023-11-19T14:56:21;1.87;;;1.00;;
8104;SDS011;4095;48.942;9.104;2023-11-19T14:58:46;1.80;;;0.97;;
8104;SDS011;4095;48.942;9.104;2023-11-19T15:01:12;2.00;;;1.10;;
8104;SDS011;4095;48.942;9.104;2023-11-19T15:03:38;1.47;;;1.00;;
8104;SDS011;4095;48.942;9.104;2023-11-19T15:06:04;3.47;;;1.27;;
8104;SDS011;4095;48.942;9.104;2023-11-19T15:08:31;1.37;;;0.90;;
8104;SDS011;4095;48.942;9.104;2023-11-19T15:10:57;2.00;;;0.97;;
8104;SDS011;4095;48.942;9.104;2023-11-19T15:13:24;1.43;;;1.00;;
8104;SDS011;4095;48.942;9.104;2023-11-19T15:15:50;1.13;;;0.90;;
8104;SDS011;4095;48.942;9.104;2023-11-19T15:18:17;1.90;;;1.00;;
8104;SDS011;4095;48.942;9.104;2023-11-19T15:20:44;3.33;;;1.10;;
8104;SDS011;4095;48.942;9.104;2023-11-19T15:23:12;0.93;;;0.73;;
8104;SDS011;4095;48.942;9.104;2023-11-19T15:25:38;3.30;;;1.13;;
8104;SDS011;4095;48.942;9.104;2023-11-19T15:28:04;0.97;;;0.70;;
8104;SDS011;4095;48.942;9.104;2023-11-19T15:30:29;1.00;;;0.87;;
8104;SDS011;4095;48.942;9.104;2023-11-19T15:32:55;1.73;;;0.90;;
8104;SDS011;4095;48.942;9.104;2023-11-19T15:35:21;2.07;;;1.00;;
8104;SDS011;4095;48.942;9.104;2023-11-19T15:37:46;3.03;;;1.07;;
8104;SDS011;4095;48.942;9.104;2023-11-19T15:40:12;1.53;;;0.93;;
8104;SDS011;4095;48.942;9.104;2023-11-19T15:42:38;2.23;;;1.00;;